sensor_id;sensor_type;location;lat;lon;timestamp;temperature;humidity
3288;DHT22;3260;52.438;13.502;2022-09-29T04:00:33;8.90;17.90
3288;DHT22;3260;52.438;13.502;2022-09-29T04:03:01;8.90;15.60
3288;DHT22;3260;52.438;13.502;2022-09-29T04:05:29;8.90;13.90
3288;DHT22;3260;52.438;13.502;2022-09-29T04:07:57;8.90;11.20
3288;DHT22;3260;52.438;13.502;2022-09-29T04:10:25;8.90;7.60
3288;DHT22;3260;52.438;13.502;2022-09-29T04:12:54;8.90;2.80
3288;DHT22;3260;52.438;13.502;2022-09-29T04:15:22;8.90;1.00
3288;DHT22;3260;52.438;13.502;2022-09-29T04:17:51;8.90;1.00
3288;DHT22;3260;52.438;13.502;2022-09-29T04:20:19;8.90;1.00
3288;DHT22;3260;52.438;13.502;2022-09-29T04:22:47;8.80;1.00
3288;DHT22;3260;52.438;13.502;2022-09-29T04:25:15;8.80;1.00
3288;DHT22;3260;52.438;13.502;2022-09-29T04:27:44;8.80;1.00
3288;DHT22;3260;52.438;13.502;2022-09-29T04:30:12;8.80;1.00
3288;DHT22;3260;52.438;13.502;2022-09-29T04:32:41;8.80;1.00
3288;DHT22;3260;52.438;13.502;2022-09-29T04:35:10;8.80;1.00
3288;DHT22;3260;52.438;13.502;2022-09-29T04:37:39;8.80;1.00
3288;DHT22;3260;52.438;13.502;2022-09-29T04:40:07;8.80;1.00
3288;DHT22;3260;52.438;13.502;2022-09-29T04:42:37;8.80;1.00
3288;DHT22;3260;52.438;13.502;2022-09-29T04:45:05;8.80;1.00
3288;DHT22;3260;52.438;13.502;2022-09-29T04:47:34;8.90;1.00
3288;DHT22;3260;52.438;13.502;2022-09-29T04:50:03;8.90;1.00
3288;DHT22;3260;52.438;13.502;2022-09-29T04:52:33;8.90;1.00
3288;DHT22;3260;52.438;13.502;2022-09-29T04:55:01;9.00;1.00
3288;DHT22;3260;52.438;13.502;2022-09-29T04:57:30;9.00;1.00
3288;DHT22;3260;52.438;13.502;2022-09-29T04:59:58;9.10;1.00
3288;DHT22;3260;52.438;13.502;2022-09-29T05:02:26;9.10;1.00
3288;DHT22;3260;52.438;13.502;2022-09-29T05:04:54;9.10;1.00
3288;DHT22;3260;52.438;13.502;2022-09-29T05:07:22;9.10;1.00
3288;DHT22;3260;52.438;13.502;2022-09-29T05:09:51;9.10;1.00
3288;DHT22;3260;52.438;13.502;2022-09-29T05:12:19;9.10;1.00
3288;DHT22;3260;52.438;13.502;2022-09-29T05:14:47;9.10;1.00
3288;DHT22;3260;52.438;13.502;2022-09-29T05:17:15;9.10;1.00
3288;DHT22;3260;52.438;13.502;2022-09-29T05:19:43;9.10;1.00
3288;DHT22;3260;52.438;13.502;2022-09-29T05:22:11;9.10;1.00
3288;DHT22;3260;52.438;13.502;2022-09-29T05:24:39;9.10;1.00
3288;DHT22;3260;52.438;13.502;2022-09-29T05:27:08;9.10;1.00
3288;DHT22;3260;52.438;13.502;2022-09-29T05:29:36;9.00;1.00
3288;DHT22;3260;52.438;13.502;2022-09-29T05:32:04;9.00;1.00
3288;DHT22;3260;52.438;13.502;2022-09-29T05:34:32;9.00;1.00
3288;DHT22;3260;52.438;13.502;2022-09-29T05:37:00;9.00;1.00
3288;DHT22;3260;52.438;13.502;2022-09-29T05:39:28;9.00;1.00
3288;DHT22;3260;52.438;13.502;2022-09-29T05:41:59;9.10;1.00
3288;DHT22;3260;52.438;13.502;2022-09-29T05:44:29;9.10;1.00
3288;DHT22;3260;52.438;13.502;2022-09-29T05:46:57;9.20;1.00
3288;DHT22;3260;52.438;13.502;2022-09-29T05:49:25;9.20;1.00
3288;DHT22;3260;52.438;13.502;2022-09-29T05:51:53;9.20;1.00
3288;DHT22;3260;52.438;13.502;2022-09-29T05:54:21;9.20;1.00
3288;DHT22;3260;52.438;13.502;2022-09-29T05:56:49;9.20;1.00
3288;DHT22;3260;52.438;13.502;2022-09-29T05:59:17;9.20;1.00
3288;DHT22;3260;52.438;13.502;2022-09-29T06:01:46;9.20;1.00
3288;DHT22;3260;52.438;13.502;2022-09-29T06:04:15;9.30;1.00
3288;DHT22;3260;52.438;13.502;2022-09-29T06:06:43;9.30;1.00
3288;DHT22;3260;52.438;13.502;2022-09-29T06:09:13;9.30;1.00
3288;DHT22;3260;52.438;13.502;2022-09-29T06:11:43;9.40;1.00
3288;DHT22;3260;52.438;13.502;2022-09-29T06:14:11;9.30;1.00
3288;DHT22;3260;52.438;13.502;2022-09-29T06:16:38;9.30;1.00
3288;DHT22;3260;52.438;13.502;2022-09-29T06:19:08;9.40;1.00
3288;DHT22;3260;52.438;13.502;2022-09-29T06:21:36;9.40;1.00
3288;DHT22;3260;52.438;13.502;2022-09-29T06:24:05;9.40;1.00
3288;DHT22;3260;52.438;13.502;2022-09-29T06:26:33;9.40;1.00
3288;DHT22;3260;52.438;13.502;2022-09-29T06:29:02;9.40;1.00
3288;DHT22;3260;52.438;13.502;2022-09-29T06:31:31;9.50;1.00
3288;DHT22;3260;52.438;13.502;2022-09-29T06:34:02;9.60;1.00
3288;DHT22;3260;52.438;13.502;2022-09-29T06:36:34;9.60;1.00
3288;DHT22;3260;52.438;13.502;2022-09-29T06:39:22;9.70;1.00
3288;DHT22;3260;52.438;13.502;2022-09-29T06:41:51;9.80;1.00
3288;DHT22;3260;52.438;13.502;2022-09-29T06:44:23;9.80;1.00
3288;DHT22;3260;52.438;13.502;2022-09-29T06:46:53;9.80;1.00
3288;DHT22;3260;52.438;13.502;2022-09-29T06:49:21;9.80;1.00
3288;DHT22;3260;52.438;13.502;2022-09-29T06:51:51;9.80;1.00
3288;DHT22;3260;52.438;13.502;2022-09-29T06:54:21;9.90;1.00
3288;DHT22;3260;52.438;13.502;2022-09-29T06:56:52;9.90;1.00
3288;DHT22;3260;52.438;13.502;2022-09-29T06:59:20;9.90;1.00
3288;DHT22;3260;52.438;13.502;2022-09-29T07:01:49;9.90;1.00
3288;DHT22;3260;52.438;13.502;2022-09-29T07:04:18;10.00;1.00
3288;DHT22;3260;52.438;13.502;2022-09-29T07:06:48;10.00;1.00
3288;DHT22;3260;52.438;13.502;2022-09-29T07:09:18;10.00;1.00
3288;DHT22;3260;52.438;13.502;2022-09-29T07:11:48;10.10;1.00
3288;DHT22;3260;52.438;13.502;2022-09-29T07:14:19;10.10;1.00
3288;DHT22;3260;52.438;13.502;2022-09-29T07:16:49;10.10;1.00
3288;DHT22;3260;52.438;13.502;2022-09-29T07:19:18;10.20;1.00
3288;DHT22;3260;52.438;13.502;2022-09-29T07:21:47;10.20;1.00
3288;DHT22;3260;52.438;13.502;2022-09-29T07:24:17;10.30;1.00
3288;DHT22;3260;52.438;13.502;2022-09-29T07:26:45;10.40;1.00
3288;DHT22;3260;52.438;13.502;2022-09-29T07:29:13;10.50;1.00
3288;DHT22;3260;52.438;13.502;2022-09-29T07:31:42;10.70;1.00
3288;DHT22;3260;52.438;13.502;2022-09-29T07:34:17;10.80;1.00
3288;DHT22;3260;52.438;13.502;2022-09-29T07:36:45;10.90;1.00
3288;DHT22;3260;52.438;13.502;2022-09-29T07:39:13;11.00;1.00
3288;DHT22;3260;52.438;13.502;2022-09-29T07:41:43;11.10;1.00
3288;DHT22;3260;52.438;13.502;2022-09-29T07:44:10;11.20;1.00
3288;DHT22;3260;52.438;13.502;2022-09-29T07:46:39;11.20;1.00
3288;DHT22;3260;52.438;13.502;2022-09-29T07:49:07;11.30;1.00
3288;DHT22;3260;52.438;13.502;2022-09-29T07:51:35;11.40;1.00
3288;DHT22;3260;52.438;13.502;2022-09-29T07:54:04;11.50;1.00
3288;DHT22;3260;52.438;13.502;2022-09-29T07:56:32;11.60;1.00
3288;DHT22;3260;52.438;13.502;2022-09-29T07:59:02;11.70;1.00
3288;DHT22;3260;52.438;13.502;2022-09-29T08:01:31;11.80;1.00
3288;DHT22;3260;52.438;13.502;2022-09-29T08:04:00;11.90;1.00
3288;DHT22;3260;52.438;13.502;2022-09-29T08:06:28;12.00;1.00
3288;DHT22;3260;52.438;13.502;2022-09-29T08:08:59;12.10;1.00
3288;DHT22;3260;52.438;13.502;2022-09-29T08:11:31;12.40;1.00
3288;DHT22;3260;52.438;13.502;2022-09-29T08:14:02;12.50;1.00
3288;DHT22;3260;52.438;13.502;2022-09-29T08:16:30;12.70;1.00
3288;DHT22;3260;52.438;13.502;2022-09-29T08:19:00;12.90;1.00
3288;DHT22;3260;52.438;13.502;2022-09-29T08:21:29;12.90;1.00
3288;DHT22;3260;52.438;13.502;2022-09-29T08:24:02;12.90;1.00
3288;DHT22;3260;52.438;13.502;2022-09-29T08:26:32;13.00;1.00
3288;DHT22;3260;52.438;13.502;2022-09-29T08:29:11;13.20;1.00
3288;DHT22;3260;52.438;13.502;2022-09-29T08:31:43;13.50;1.00
3288;DHT22;3260;52.438;13.502;2022-09-29T08:34:12;13.70;1.00
3288;DHT22;3260;52.438;13.502;2022-09-29T08:36:41;13.70;1.00
3288;DHT22;3260;52.438;13.502;2022-09-29T08:39:10;13.70;1.00
3288;DHT22;3260;52.438;13.502;2022-09-29T08:41:48;13.90;1.00
3288;DHT22;3260;52.438;13.502;2022-09-29T08:44:31;14.10;1.00
3288;DHT22;3260;52.438;13.502;2022-09-29T08:47:14;14.30;1.00
3288;DHT22;3260;52.438;13.502;2022-09-29T08:49:51;14.50;1.00
3288;DHT22;3260;52.438;13.502;2022-09-29T08:52:24;14.70;1.00
3288;DHT22;3260;52.438;13.502;2022-09-29T08:55:02;14.80;1.00
3288;DHT22;3260;52.438;13.502;2022-09-29T08:57:57;15.00;1.00
3288;DHT22;3260;52.438;13.502;2022-09-29T09:00:35;15.20;1.00
3288;DHT22;3260;52.438;13.502;2022-09-29T09:03:13;15.30;1.00
3288;DHT22;3260;52.438;13.502;2022-09-29T09:06:18;15.40;1.00
3288;DHT22;3260;52.438;13.502;2022-09-29T09:09:21;15.40;1.00
3288;DHT22;3260;52.438;13.502;2022-09-29T09:12:25;15.60;1.00
3288;DHT22;3260;52.438;13.502;2022-09-29T09:15:16;15.80;1.00
3288;DHT22;3260;52.438;13.502;2022-09-29T09:18:15;16.00;1.00
3288;DHT22;3260;52.438;13.502;2022-09-29T09:20:59;15.90;1.00
3288;DHT22;3260;52.438;13.502;2022-09-29T09:23:41;16.10;1.00
3288;DHT22;3260;52.438;13.502;2022-09-29T09:26:31;16.30;1.00
3288;DHT22;3260;52.438;13.502;2022-09-29T09:29:10;16.40;1.00
3288;DHT22;3260;52.438;13.502;2022-09-29T09:31:47;16.40;1.00
3288;DHT22;3260;52.438;13.502;2022-09-29T09:34:26;16.50;1.00
3288;DHT22;3260;52.438;13.502;2022-09-29T09:37:12;16.50;1.00
3288;DHT22;3260;52.438;13.502;2022-09-29T09:39:47;16.50;1.00
3288;DHT22;3260;52.438;13.502;2022-09-29T09:42:24;16.60;1.00
3288;DHT22;3260;52.438;13.502;2022-09-29T09:44:57;16.60;1.00
3288;DHT22;3260;52.438;13.502;2022-09-29T09:47:29;16.50;1.00
3288;DHT22;3260;52.438;13.502;2022-09-29T09:50:04;16.70;1.00
3288;DHT22;3260;52.438;13.502;2022-09-29T09:52:44;16.70;1.00
3288;DHT22;3260;52.438;13.502;2022-09-29T09:55:17;16.70;1.00
3288;DHT22;3260;52.438;13.502;2022-09-29T09:58:03;16.40;1.00
3288;DHT22;3260;52.438;13.502;2022-09-29T10:00:41;16.20;1.00
3288;DHT22;3260;52.438;13.502;2022-09-29T10:03:14;16.20;1.00
3288;DHT22;3260;52.438;13.502;2022-09-29T10:05:45;16.20;1.00
3288;DHT22;3260;52.438;13.502;2022-09-29T10:08:19;16.30;1.00
3288;DHT22;3260;52.438;13.502;2022-09-29T10:10:51;16.40;1.00
3288;DHT22;3260;52.438;13.502;2022-09-29T10:13:27;16.60;1.00
3288;DHT22;3260;52.438;13.502;2022-09-29T10:16:00;16.70;1.00
3288;DHT22;3260;52.438;13.502;2022-09-29T10:18:38;17.00;1.00
3288;DHT22;3260;52.438;13.502;2022-09-29T10:21:20;17.10;1.00
3288;DHT22;3260;52.438;13.502;2022-09-29T10:23:50;17.10;1.00
3288;DHT22;3260;52.438;13.502;2022-09-29T10:26:22;17.10;1.00
3288;DHT22;3260;52.438;13.502;2022-09-29T10:28:53;17.10;1.00
3288;DHT22;3260;52.438;13.502;2022-09-29T10:31:25;17.30;1.00
3288;DHT22;3260;52.438;13.502;2022-09-29T10:33:57;17.30;1.00
3288;DHT22;3260;52.438;13.502;2022-09-29T10:36:31;17.50;1.00
3288;DHT22;3260;52.438;13.502;2022-09-29T10:39:00;17.50;1.00
3288;DHT22;3260;52.438;13.502;2022-09-29T10:41:42;17.50;1.00
3288;DHT22;3260;52.438;13.502;2022-09-29T10:44:20;17.50;1.00
3288;DHT22;3260;52.438;13.502;2022-09-29T10:46:52;17.60;1.00
3288;DHT22;3260;52.438;13.502;2022-09-29T10:49:22;17.70;1.00
3288;DHT22;3260;52.438;13.502;2022-09-29T10:51:58;18.00;1.00
3288;DHT22;3260;52.438;13.502;2022-09-29T10:54:31;18.30;1.00
3288;DHT22;3260;52.438;13.502;2022-09-29T10:57:11;18.50;1.00
3288;DHT22;3260;52.438;13.502;2022-09-29T10:59:47;19.00;1.00
3288;DHT22;3260;52.438;13.502;2022-09-29T11:02:22;19.50;1.00
3288;DHT22;3260;52.438;13.502;2022-09-29T11:04:59;20.00;1.00
3288;DHT22;3260;52.438;13.502;2022-09-29T11:07:31;20.20;1.00
3288;DHT22;3260;52.438;13.502;2022-09-29T11:10:00;20.50;1.00
3288;DHT22;3260;52.438;13.502;2022-09-29T11:12:33;20.90;1.00
3288;DHT22;3260;52.438;13.502;2022-09-29T11:15:23;21.00;1.00
3288;DHT22;3260;52.438;13.502;2022-09-29T11:17:53;21.00;1.00
3288;DHT22;3260;52.438;13.502;2022-09-29T11:20:26;21.00;1.00
3288;DHT22;3260;52.438;13.502;2022-09-29T11:23:17;20.80;1.00
3288;DHT22;3260;52.438;13.502;2022-09-29T11:29:15;20.10;1.00
3288;DHT22;3260;52.438;13.502;2022-09-29T11:32:08;19.60;1.00
3288;DHT22;3260;52.438;13.502;2022-09-29T11:34:57;19.40;1.00
3288;DHT22;3260;52.438;13.502;2022-09-29T11:37:45;18.90;1.00
3288;DHT22;3260;52.438;13.502;2022-09-29T11:40:35;18.90;1.00
3288;DHT22;3260;52.438;13.502;2022-09-29T11:43:29;18.80;1.00
3288;DHT22;3260;52.438;13.502;2022-09-29T11:46:19;18.60;1.00
3288;DHT22;3260;52.438;13.502;2022-09-29T11:49:22;18.40;1.00
3288;DHT22;3260;52.438;13.502;2022-09-29T11:52:21;18.20;1.00
3288;DHT22;3260;52.438;13.502;2022-09-29T11:55:24;18.20;1.00
3288;DHT22;3260;52.438;13.502;2022-09-29T11:58:13;18.00;1.00
3288;DHT22;3260;52.438;13.502;2022-09-29T12:01:03;18.10;1.00
3288;DHT22;3260;52.438;13.502;2022-09-29T12:03:53;18.10;1.00
3288;DHT22;3260;52.438;13.502;2022-09-29T12:06:52;18.00;1.00
3288;DHT22;3260;52.438;13.502;2022-09-29T12:09:40;18.00;1.00
3288;DHT22;3260;52.438;13.502;2022-09-29T12:12:28;17.80;1.00
3288;DHT22;3260;52.438;13.502;2022-09-29T12:15:12;17.70;1.00
3288;DHT22;3260;52.438;13.502;2022-09-29T12:17:51;17.60;1.00
3288;DHT22;3260;52.438;13.502;2022-09-29T12:20:25;17.70;1.00
3288;DHT22;3260;52.438;13.502;2022-09-29T12:22:58;17.80;1.00
3288;DHT22;3260;52.438;13.502;2022-09-29T12:25:33;17.90;1.00
3288;DHT22;3260;52.438;13.502;2022-09-29T12:28:11;18.10;1.00
3288;DHT22;3260;52.438;13.502;2022-09-29T12:30:48;18.30;1.00
3288;DHT22;3260;52.438;13.502;2022-09-29T12:33:24;18.50;1.00
3288;DHT22;3260;52.438;13.502;2022-09-29T12:36:14;18.70;1.00
3288;DHT22;3260;52.438;13.502;2022-09-29T12:39:15;18.90;1.00
3288;DHT22;3260;52.438;13.502;2022-09-29T12:41:52;19.10;1.00
3288;DHT22;3260;52.438;13.502;2022-09-29T12:44:31;19.30;1.00
3288;DHT22;3260;52.438;13.502;2022-09-29T12:47:11;19.40;1.00
3288;DHT22;3260;52.438;13.502;2022-09-29T12:49:56;19.60;1.00
3288;DHT22;3260;52.438;13.502;2022-09-29T12:52:35;19.90;1.00
3288;DHT22;3260;52.438;13.502;2022-09-29T12:55:16;21.30;1.00
3288;DHT22;3260;52.438;13.502;2022-09-29T12:57:52;23.80;1.00
3288;DHT22;3260;52.438;13.502;2022-09-29T13:00:27;26.10;1.00
3288;DHT22;3260;52.438;13.502;2022-09-29T13:03:34;28.30;1.00
3288;DHT22;3260;52.438;13.502;2022-09-29T13:06:33;31.10;1.00
3288;DHT22;3260;52.438;13.502;2022-09-29T13:16:04;36.00;1.00
3288;DHT22;3260;52.438;13.502;2022-09-29T13:18:55;36.20;1.00
3288;DHT22;3260;52.438;13.502;2022-09-29T13:21:54;34.20;1.00
3288;DHT22;3260;52.438;13.502;2022-09-29T13:24:34;31.80;1.00
3288;DHT22;3260;52.438;13.502;2022-09-29T13:27:24;29.70;1.00
3288;DHT22;3260;52.438;13.502;2022-09-29T13:30:04;27.60;1.00
3288;DHT22;3260;52.438;13.502;2022-09-29T13:32:43;26.30;1.00
3288;DHT22;3260;52.438;13.502;2022-09-29T13:35:16;25.30;1.00
3288;DHT22;3260;52.438;13.502;2022-09-29T13:37:48;24.40;1.00
3288;DHT22;3260;52.438;13.502;2022-09-29T13:40:21;23.50;1.00
3288;DHT22;3260;52.438;13.502;2022-09-29T13:42:53;23.60;1.00
3288;DHT22;3260;52.438;13.502;2022-09-29T13:45:40;23.60;1.00
3288;DHT22;3260;52.438;13.502;2022-09-29T13:48:49;23.20;1.00
3288;DHT22;3260;52.438;13.502;2022-09-29T13:51:25;23.50;1.00
3288;DHT22;3260;52.438;13.502;2022-09-29T13:54:28;24.70;1.00
3288;DHT22;3260;52.438;13.502;2022-09-29T14:00:18;26.70;1.00
3288;DHT22;3260;52.438;13.502;2022-09-29T14:02:59;29.30;1.00
3288;DHT22;3260;52.438;13.502;2022-09-29T14:05:44;29.90;1.00
3288;DHT22;3260;52.438;13.502;2022-09-29T14:08:18;29.90;1.00
3288;DHT22;3260;52.438;13.502;2022-09-29T14:10:57;31.40;1.00
3288;DHT22;3260;52.438;13.502;2022-09-29T14:13:31;33.40;1.00
3288;DHT22;3260;52.438;13.502;2022-09-29T14:16:28;34.80;1.00
3288;DHT22;3260;52.438;13.502;2022-09-29T14:19:05;36.10;1.00
3288;DHT22;3260;52.438;13.502;2022-09-29T14:21:51;36.90;1.00
3288;DHT22;3260;52.438;13.502;2022-09-29T14:24:43;38.10;1.00
3288;DHT22;3260;52.438;13.502;2022-09-29T14:27:23;37.40;1.00
3288;DHT22;3260;52.438;13.502;2022-09-29T14:32:52;33.50;1.00
3288;DHT22;3260;52.438;13.502;2022-09-29T14:35:26;32.70;1.00
3288;DHT22;3260;52.438;13.502;2022-09-29T14:38:01;33.30;1.00
3288;DHT22;3260;52.438;13.502;2022-09-29T14:40:32;34.40;1.00
3288;DHT22;3260;52.438;13.502;2022-09-29T14:43:07;35.00;1.00
3288;DHT22;3260;52.438;13.502;2022-09-29T14:45:59;34.20;1.00
3288;DHT22;3260;52.438;13.502;2022-09-29T14:53:03;29.40;1.00
3288;DHT22;3260;52.438;13.502;2022-09-29T14:55:50;27.50;1.00
3288;DHT22;3260;52.438;13.502;2022-09-29T14:58:42;26.10;1.00
3288;DHT22;3260;52.438;13.502;2022-09-29T15:01:27;24.90;1.00
3288;DHT22;3260;52.438;13.502;2022-09-29T15:03:57;23.40;1.00
3288;DHT22;3260;52.438;13.502;2022-09-29T15:06:32;22.40;1.00
3288;DHT22;3260;52.438;13.502;2022-09-29T15:09:14;21.50;1.00
3288;DHT22;3260;52.438;13.502;2022-09-29T15:11:49;20.60;1.00
3288;DHT22;3260;52.438;13.502;2022-09-29T15:14:23;19.90;1.00
3288;DHT22;3260;52.438;13.502;2022-09-29T15:17:07;19.40;1.00
3288;DHT22;3260;52.438;13.502;2022-09-29T15:19:51;18.70;1.00
3288;DHT22;3260;52.438;13.502;2022-09-29T15:25:28;17.60;1.00
3288;DHT22;3260;52.438;13.502;2022-09-29T15:28:00;17.30;1.00
3288;DHT22;3260;52.438;13.502;2022-09-29T15:30:30;17.10;1.00
3288;DHT22;3260;52.438;13.502;2022-09-29T15:33:19;17.00;1.00
3288;DHT22;3260;52.438;13.502;2022-09-29T15:35:51;16.80;1.00
3288;DHT22;3260;52.438;13.502;2022-09-29T15:38:28;16.70;1.00
3288;DHT22;3260;52.438;13.502;2022-09-29T15:41:03;16.70;1.00
3288;DHT22;3260;52.438;13.502;2022-09-29T15:43:43;16.50;1.00
3288;DHT22;3260;52.438;13.502;2022-09-29T15:46:21;16.50;1.00
3288;DHT22;3260;52.438;13.502;2022-09-29T15:49:11;16.50;1.00
3288;DHT22;3260;52.438;13.502;2022-09-29T15:51:43;16.60;1.00
3288;DHT22;3260;52.438;13.502;2022-09-29T15:54:22;16.60;1.00
3288;DHT22;3260;52.438;13.502;2022-09-29T15:56:53;16.70;1.00
3288;DHT22;3260;52.438;13.502;2022-09-29T15:59:42;16.90;1.00
3288;DHT22;3260;52.438;13.502;2022-09-29T16:02:21;17.50;1.00
3288;DHT22;3260;52.438;13.502;2022-09-29T16:04:54;18.50;1.00
3288;DHT22;3260;52.438;13.502;2022-09-29T16:07:26;20.10;1.00
3288;DHT22;3260;52.438;13.502;2022-09-29T16:10:00;21.10;1.00
3288;DHT22;3260;52.438;13.502;2022-09-29T16:12:37;21.90;1.00
3288;DHT22;3260;52.438;13.502;2022-09-29T16:15:17;22.40;1.00
3288;DHT22;3260;52.438;13.502;2022-09-29T16:17:51;22.20;1.00
3288;DHT22;3260;52.438;13.502;2022-09-29T16:20:25;21.20;1.00
3288;DHT22;3260;52.438;13.502;2022-09-29T16:22:56;20.20;1.00
3288;DHT22;3260;52.438;13.502;2022-09-29T16:25:33;19.20;1.00
3288;DHT22;3260;52.438;13.502;2022-09-29T16:28:03;18.30;1.00
3288;DHT22;3260;52.438;13.502;2022-09-29T16:30:34;17.60;1.00
3288;DHT22;3260;52.438;13.502;2022-09-29T16:33:12;17.10;1.00
3288;DHT22;3260;52.438;13.502;2022-09-29T16:35:45;16.50;1.00
3288;DHT22;3260;52.438;13.502;2022-09-29T16:38:30;16.10;1.00
3288;DHT22;3260;52.438;13.502;2022-09-29T16:41:13;15.70;1.00
3288;DHT22;3260;52.438;13.502;2022-09-29T16:43:48;15.40;1.00
3288;DHT22;3260;52.438;13.502;2022-09-29T16:46:18;15.10;1.00
3288;DHT22;3260;52.438;13.502;2022-09-29T16:48:48;14.70;1.00
3288;DHT22;3260;52.438;13.502;2022-09-29T16:51:19;14.30;1.00
3288;DHT22;3260;52.438;13.502;2022-09-29T16:54:08;14.10;1.00
3288;DHT22;3260;52.438;13.502;2022-09-29T16:56:43;13.80;1.00
3288;DHT22;3260;52.438;13.502;2022-09-29T16:59:17;13.60;1.00
3288;DHT22;3260;52.438;13.502;2022-09-29T17:01:46;13.40;1.00
3288;DHT22;3260;52.438;13.502;2022-09-29T17:04:15;13.30;1.00
3288;DHT22;3260;52.438;13.502;2022-09-29T17:06:45;13.10;1.00
3288;DHT22;3260;52.438;13.502;2022-09-29T17:09:17;13.00;1.00
3288;DHT22;3260;52.438;13.502;2022-09-29T17:11:47;12.90;1.00
3288;DHT22;3260;52.438;13.502;2022-09-29T17:14:17;12.80;1.00
3288;DHT22;3260;52.438;13.502;2022-09-29T17:16:47;12.60;1.00
3288;DHT22;3260;52.438;13.502;2022-09-29T17:19:17;12.40;1.00
3288;DHT22;3260;52.438;13.502;2022-09-29T17:21:47;12.40;1.00
3288;DHT22;3260;52.438;13.502;2022-09-29T17:24:16;12.20;1.00
3288;DHT22;3260;52.438;13.502;2022-09-29T17:26:45;12.20;1.00
3288;DHT22;3260;52.438;13.502;2022-09-29T17:29:33;12.10;1.00
3288;DHT22;3260;52.438;13.502;2022-09-29T17:32:01;12.10;1.00
3288;DHT22;3260;52.438;13.502;2022-09-29T17:34:29;12.00;1.00
3288;DHT22;3260;52.438;13.502;2022-09-29T17:36:59;12.00;1.00
3288;DHT22;3260;52.438;13.502;2022-09-29T17:39:28;11.90;1.00
3288;DHT22;3260;52.438;13.502;2022-09-29T17:41:56;11.80;1.00
3288;DHT22;3260;52.438;13.502;2022-09-29T17:44:25;11.80;1.00
3288;DHT22;3260;52.438;13.502;2022-09-29T17:46:55;11.80;1.00
3288;DHT22;3260;52.438;13.502;2022-09-29T17:49:44;11.70;1.00
3288;DHT22;3260;52.438;13.502;2022-09-29T17:52:16;11.70;1.00
3288;DHT22;3260;52.438;13.502;2022-09-29T17:54:45;11.60;1.00
3288;DHT22;3260;52.438;13.502;2022-09-29T17:57:19;11.60;1.00
3288;DHT22;3260;52.438;13.502;2022-09-29T17:59:52;11.50;1.00
3288;DHT22;3260;52.438;13.502;2022-09-29T18:02:22;11.50;1.00
3288;DHT22;3260;52.438;13.502;2022-09-29T18:04:50;11.40;1.00
3288;DHT22;3260;52.438;13.502;2022-09-29T18:07:19;11.30;1.00
3288;DHT22;3260;52.438;13.502;2022-09-29T18:09:48;11.30;1.00
3288;DHT22;3260;52.438;13.502;2022-09-29T18:12:16;11.20;1.00
3288;DHT22;3260;52.438;13.502;2022-09-29T18:14:44;11.20;1.00
3288;DHT22;3260;52.438;13.502;2022-09-29T18:17:12;11.10;1.00
3288;DHT22;3260;52.438;13.502;2022-09-29T18:19:42;11.10;1.00
3288;DHT22;3260;52.438;13.502;2022-09-29T18:22:11;11.00;1.00
3288;DHT22;3260;52.438;13.502;2022-09-29T18:24:39;10.90;1.00
3288;DHT22;3260;52.438;13.502;2022-09-29T18:27:08;10.90;1.00
3288;DHT22;3260;52.438;13.502;2022-09-29T18:29:40;10.80;1.00
3288;DHT22;3260;52.438;13.502;2022-09-29T18:32:09;10.80;1.00
3288;DHT22;3260;52.438;13.502;2022-09-29T18:34:43;10.70;1.00
3288;DHT22;3260;52.438;13.502;2022-09-29T18:37:11;10.70;1.00
3288;DHT22;3260;52.438;13.502;2022-09-29T18:39:41;10.60;1.00
3288;DHT22;3260;52.438;13.502;2022-09-29T18:42:09;10.60;1.00
3288;DHT22;3260;52.438;13.502;2022-09-29T18:44:39;10.50;1.00
3288;DHT22;3260;52.438;13.502;2022-09-29T18:47:08;10.50;1.00
3288;DHT22;3260;52.438;13.502;2022-09-29T18:49:38;10.40;1.00
3288;DHT22;3260;52.438;13.502;2022-09-29T18:52:07;10.40;1.00
3288;DHT22;3260;52.438;13.502;2022-09-29T18:54:35;10.30;1.00
3288;DHT22;3260;52.438;13.502;2022-09-29T18:57:03;10.30;1.00
3288;DHT22;3260;52.438;13.502;2022-09-29T18:59:32;10.20;1.00
3288;DHT22;3260;52.438;13.502;2022-09-29T19:02:01;10.20;1.00
3288;DHT22;3260;52.438;13.502;2022-09-29T19:04:29;10.10;1.00
3288;DHT22;3260;52.438;13.502;2022-09-29T19:06:57;10.10;1.00
3288;DHT22;3260;52.438;13.502;2022-09-29T19:09:26;10.00;1.00
3288;DHT22;3260;52.438;13.502;2022-09-29T19:11:54;10.00;1.00
3288;DHT22;3260;52.438;13.502;2022-09-29T19:14:23;10.00;1.00
3288;DHT22;3260;52.438;13.502;2022-09-29T19:16:50;9.90;1.00
3288;DHT22;3260;52.438;13.502;2022-09-29T19:19:20;9.90;1.00
3288;DHT22;3260;52.438;13.502;2022-09-29T19:21:50;9.90;1.00
3288;DHT22;3260;52.438;13.502;2022-09-29T19:24:18;9.80;1.00
3288;DHT22;3260;52.438;13.502;2022-09-29T19:26:51;9.80;1.00
3288;DHT22;3260;52.438;13.502;2022-09-29T19:29:19;9.80;1.00
3288;DHT22;3260;52.438;13.502;2022-09-29T19:31:48;9.70;1.00
3288;DHT22;3260;52.438;13.502;2022-09-29T19:34:16;9.70;1.00
3288;DHT22;3260;52.438;13.502;2022-09-29T19:36:44;9.70;1.00
3288;DHT22;3260;52.438;13.502;2022-09-29T19:39:12;9.70;1.00
3288;DHT22;3260;52.438;13.502;2022-09-29T19:41:41;9.60;1.00
3288;DHT22;3260;52.438;13.502;2022-09-29T19:44:11;9.60;1.00
3288;DHT22;3260;52.438;13.502;2022-09-29T19:46:39;9.60;1.00
3288;DHT22;3260;52.438;13.502;2022-09-29T19:49:07;9.50;1.00
3288;DHT22;3260;52.438;13.502;2022-09-29T19:51:35;9.50;1.00
3288;DHT22;3260;52.438;13.502;2022-09-29T19:54:20;9.50;1.00
3288;DHT22;3260;52.438;13.502;2022-09-29T19:56:52;9.40;1.00
3288;DHT22;3260;52.438;13.502;2022-09-29T19:59:26;9.40;1.00
3288;DHT22;3260;52.438;13.502;2022-09-29T20:01:58;9.30;1.00
3288;DHT22;3260;52.438;13.502;2022-09-29T20:04:29;9.30;1.00
3288;DHT22;3260;52.438;13.502;2022-09-29T20:06:59;9.30;1.00
3288;DHT22;3260;52.438;13.502;2022-09-29T20:09:28;9.30;1.00
3288;DHT22;3260;52.438;13.502;2022-09-29T20:11:57;9.20;1.00
3288;DHT22;3260;52.438;13.502;2022-09-29T20:14:27;9.20;1.00
3288;DHT22;3260;52.438;13.502;2022-09-29T20:16:58;9.20;1.00
3288;DHT22;3260;52.438;13.502;2022-09-29T20:19:28;9.20;1.00
3288;DHT22;3260;52.438;13.502;2022-09-29T20:21:56;9.10;1.00
3288;DHT22;3260;52.438;13.502;2022-09-29T20:24:25;9.10;1.00
3288;DHT22;3260;52.438;13.502;2022-09-29T20:26:53;9.10;1.00
3288;DHT22;3260;52.438;13.502;2022-09-29T20:29:24;9.00;1.00
3288;DHT22;3260;52.438;13.502;2022-09-29T20:31:54;8.90;1.00
3288;DHT22;3260;52.438;13.502;2022-09-29T20:34:22;8.90;1.00
3288;DHT22;3260;52.438;13.502;2022-09-29T20:36:50;8.90;1.00
3288;DHT22;3260;52.438;13.502;2022-09-29T20:39:21;8.80;1.00
3288;DHT22;3260;52.438;13.502;2022-09-29T20:41:51;8.80;1.00
3288;DHT22;3260;52.438;13.502;2022-09-29T20:44:21;8.80;1.00
3288;DHT22;3260;52.438;13.502;2022-09-29T20:46:51;8.80;1.00
3288;DHT22;3260;52.438;13.502;2022-09-29T20:49:22;8.80;1.00
3288;DHT22;3260;52.438;13.502;2022-09-29T20:51:51;8.80;1.00
3288;DHT22;3260;52.438;13.502;2022-09-29T20:54:20;8.80;1.00
3288;DHT22;3260;52.438;13.502;2022-09-29T20:56:48;8.70;1.00
3288;DHT22;3260;52.438;13.502;2022-09-29T20:59:18;8.70;1.00
